Time;durP1;ratioP1;P1;durP2;ratioP2;P2;SDS_P1;SDS_P2;PMS_P1;PMS_P2;Temp;Humidity;BMP_temperature;BMP_pressure;BME280_temperature;BME280_humidity;BME280_pressure;Samples;Min_cycle;Max_cycle;Signal;HPM_P1;HPM_P2
2023/06/03 00:00:40;;;;;;;1.92;0.98;;;;;;;17.16;86.59;99748.63;6219604;22;20084;-90
2023/06/03 00:03:13;;;;;;;0.60;0.60;;;;;;;17.09;87.08;99743.44;6243799;22;20572;-89
2023/06/03 00:05:39;;;;;;;1.30;0.80;;;;;;;17.00;86.92;99737.97;6219448;22;20355;-90
2023/06/03 00:08:05;;;;;;;0.25;0.25;;;;;;;16.95;87.79;99744.25;6217815;22;20003;-91
2023/06/03 00:10:30;;;;;;;0.77;0.73;;;;;;;16.91;88.15;99746.47;6218773;22;20008;-90
2023/06/03 00:12:56;;;;;;;14.88;0.82;;;;;;;16.84;88.14;99744.09;6243962;22;20019;-90
2023/06/03 00:15:21;;;;;;;1.38;1.27;;;;;;;16.72;88.70;99743.94;6193213;22;20372;-91
2023/06/03 00:17:47;;;;;;;7.47;0.95;;;;;;;16.75;89.33;99748.56;6192640;22;20087;-90
2023/06/03 00:20:12;;;;;;;0.68;0.68;;;;;;;16.67;89.47;99764.22;6218402;22;20023;-90
2023/06/03 00:22:38;;;;;;;0.88;0.88;;;;;;;16.67;89.75;99757.84;6243020;22;20011;-89
2023/06/03 00:25:08;;;;;;;0.47;0.47;;;;;;;16.67;88.97;99758.63;6193965;22;20340;-90
2023/06/03 00:27:37;;;;;;;0.30;0.30;;;;;;;16.68;87.66;99762.19;6243366;22;20027;-90
2023/06/03 00:30:04;;;;;;;1.02;0.75;;;;;;;16.62;87.90;99750.91;6193361;22;20015;-90
2023/06/03 00:32:30;;;;;;;0.00;0.00;;;;;;;16.50;87.66;99726.75;6243573;22;20006;-90
2023/06/03 00:34:55;;;;;;;0.40;0.28;;;;;;;16.69;86.73;99761.72;6216916;22;20023;-89
2023/06/03 00:37:21;;;;;;;1.85;0.93;;;;;;;16.67;87.41;99757.84;6217891;22;20010;-89
2023/06/03 00:39:46;;;;;;;0.38;0.38;;;;;;;16.62;87.87;99753.69;6218225;22;20015;-90
2023/06/03 00:42:12;;;;;;;2.35;1.73;;;;;;;16.59;87.40;99771.47;6243501;22;20003;-90
2023/06/03 00:44:37;;;;;;;3.58;2.47;;;;;;;16.55;87.53;99773.66;6218550;22;20132;-91
2023/06/03 00:47:04;;;;;;;0.90;0.90;;;;;;;16.51;87.44;99777.91;6192934;22;20012;-90
2023/06/03 00:49:29;;;;;;;0.25;0.25;;;;;;;16.49;87.86;99792.41;6218263;22;20029;-90
2023/06/03 00:51:56;;;;;;;0.80;0.55;;;;;;;16.46;87.60;99793.34;6218118;22;20019;-89
2023/06/03 00:54:21;;;;;;;1.95;0.82;;;;;;;16.45;87.96;99796.66;6270824;22;20007;-90
2023/06/03 00:56:47;;;;;;;0.50;0.50;;;;;;;16.44;87.87;99798.69;6218301;22;20074;-89
2023/06/03 00:59:15;;;;;;;0.38;0.38;;;;;;;16.43;87.49;99799.16;6217655;22;20083;-89
2023/06/03 01:01:59;;;;;;;0.45;0.45;;;;;;;16.17;87.42;99773.78;6190025;22;20262;31
2023/06/03 01:04:26;;;;;;;0.82;0.82;;;;;;;16.18;86.47;99784.47;6211797;23;20021;-90
2023/06/03 01:07:21;;;;;;;2.30;0.73;;;;;;;16.39;86.06;99826.56;6208656;23;20042;-93
2023/06/03 01:10:20;;;;;;;1.42;1.13;;;;;;;16.36;86.05;99822.72;6225729;23;20012;-93
2023/06/03 01:12:58;;;;;;;0.52;0.30;;;;;;;16.32;86.00;99834.09;6238032;23;20472;-92
2023/06/03 01:15:25;;;;;;;0.47;0.47;;;;;;;16.29;85.93;99832.28;6237933;23;20231;-93
2023/06/03 01:17:52;;;;;;;0.35;0.35;;;;;;;16.32;86.40;99847.31;6238118;23;20000;-92
2023/06/03 01:20:19;;;;;;;0.73;0.73;;;;;;;16.28;84.32;99849.53;6212586;23;20099;-87
2023/06/03 01:22:49;;;;;;;2.00;1.02;;;;;;;16.25;84.83;99833.72;6237672;23;20014;-90
2023/06/03 01:25:16;;;;;;;0.45;0.43;;;;;;;16.25;85.03;99850.50;6213060;23;20012;-90
2023/06/03 01:27:43;;;;;;;1.45;1.35;;;;;;;16.23;84.42;99858.59;6212783;23;20007;-89
2023/06/03 01:30:12;;;;;;;0.47;0.47;;;;;;;16.19;84.26;99867.19;6213713;23;20676;-90
2023/06/03 01:32:38;;;;;;;2.33;0.95;;;;;;;16.11;84.64;99845.66;6213460;23;20066;-89
2023/06/03 01:35:06;;;;;;;0.90;0.57;;;;;;;16.08;85.12;99855.78;6214097;23;20341;-89
2023/06/03 01:37:33;;;;;;;0.73;0.45;;;;;;;16.18;84.99;99871.22;6214230;23;20008;-89
2023/06/03 01:40:01;;;;;;;0.32;0.30;;;;;;;16.12;85.37;99858.38;6237929;23;20058;-89
2023/06/03 01:42:30;;;;;;;0.88;0.85;;;;;;;16.00;86.22;99857.41;6213817;23;20257;-89
2023/06/03 01:45:00;;;;;;;1.13;0.85;;;;;;;15.91;86.94;99859.47;6189295;23;20031;-89
2023/06/03 01:47:27;;;;;;;2.35;0.30;;;;;;;15.93;87.86;99868.19;6215061;23;20016;-89
2023/06/03 01:49:55;;;;;;;0.10;0.10;;;;;;;15.88;88.67;99872.41;6214647;23;20009;-90
2023/06/03 01:52:21;;;;;;;4.80;1.15;;;;;;;15.78;89.20;99851.34;6213787;23;20039;-89
2023/06/03 01:54:46;;;;;;;0.50;0.30;;;;;;;15.74;90.01;99861.94;6214475;23;20024;-90
2023/06/03 01:57:13;;;;;;;0.55;0.52;;;;;;;15.62;91.76;99872.09;6215122;23;20062;-89
2023/06/03 01:59:41;;;;;;;4.35;0.82;;;;;;;15.61;91.58;99878.94;6190596;23;20008;-89
2023/06/03 02:02:06;;;;;;;0.50;0.50;;;;;;;15.32;92.33;99848.81;6213999;23;20023;-89
2023/06/03 02:04:32;;;;;;;2.22;1.20;;;;;;;15.45;92.87;99879.31;6189035;23;20019;-89
2023/06/03 02:06:59;;;;;;;0.68;0.55;;;;;;;15.44;94.16;99894.56;6188538;23;20019;-90
2023/06/03 02:09:29;;;;;;;0.45;0.45;;;;;;;15.16;94.69;99879.16;6239471;23;20458;-89
2023/06/03 02:11:56;;;;;;;0.50;0.50;;;;;;;15.27;95.79;99907.38;6214888;23;20045;-89
2023/06/03 02:14:22;;;;;;;0.43;0.43;;;;;;;15.28;95.82;99911.72;6213971;23;20012;-89
2023/06/03 02:16:48;;;;;;;0.28;0.28;;;;;;;15.21;96.52;99900.84;6239979;23;20012;-89
2023/06/03 02:19:19;;;;;;;0.55;0.55;;;;;;;15.19;97.41;99906.16;6238984;23;20508;-89
2023/06/03 02:21:45;;;;;;;0.80;0.80;;;;;;;15.12;97.35;99906.50;6213709;23;20008;-89
2023/06/03 02:24:11;;;;;;;7.70;1.60;;;;;;;15.05;97.53;99906.81;6239240;23;20042;-89
2023/06/03 02:26:38;;;;;;;0.45;0.45;;;;;;;15.04;97.37;99911.66;6214010;23;20022;-89
2023/06/03 02:29:05;;;;;;;0.10;0.10;;;;;;;14.94;98.09;99908.09;6188790;23;20349;-89
2023/06/03 02:31:32;;;;;;;0.43;0.43;;;;;;;14.88;98.68;99909.97;6239615;23;20016;-89
2023/06/03 02:34:00;;;;;;;1.15;0.60;;;;;;;14.60;99.33;99872.19;6214037;23;20020;-89
2023/06/03 02:36:26;;;;;;;2.00;0.75;;;;;;;14.73;99.56;99897.91;6213128;23;20531;-89
2023/06/03 02:38:51;;;;;;;2.13;1.00;;;;;;;14.58;99.58;99885.84;6237514;22;20020;-89
2023/06/03 02:41:17;;;;;;;2.20;0.60;;;;;;;14.63;100.00;99892.81;6214274;23;20449;-88
2023/06/03 02:43:43;;;;;;;0.20;0.10;;;;;;;14.63;100.00;99910.34;6213625;23;20086;-92
2023/06/03 02:46:09;;;;;;;0.80;0.75;;;;;;;14.56;100.00;99909.91;6238131;23;20016;-89
2023/06/03 02:48:34;;;;;;;0.88;0.70;;;;;;;14.54;100.00;99917.94;6213355;23;20016;-89
2023/06/03 02:51:00;;;;;;;0.70;0.70;;;;;;;14.26;100.00;99892.06;6187935;23;20011;-89
2023/06/03 02:53:27;;;;;;;0.50;0.50;;;;;;;14.48;100.00;99917.78;6238359;22;20020;-89
2023/06/03 02:55:53;;;;;;;0.35;0.30;;;;;;;14.43;100.00;99924.00;6213113;23;20020;-88
2023/06/03 02:58:19;;;;;;;0.98;0.75;;;;;;;14.27;100.00;99899.97;6213919;23;20484;-89
2023/06/03 03:00:47;;;;;;;0.50;0.50;;;;;;;14.36;100.00;99913.94;6213367;23;20015;-90
2023/06/03 03:03:13;;;;;;;0.60;0.60;;;;;;;14.30;100.00;99917.78;6243202;22;20025;-92
2023/06/03 03:05:40;;;;;;;0.13;0.13;;;;;;;14.28;100.00;99907.06;6218761;22;20094;-91
2023/06/03 03:08:06;;;;;;;1.33;1.25;;;;;;;14.22;100.00;99906.16;6218654;22;20090;-91
2023/06/03 03:10:31;;;;;;;0.30;0.25;;;;;;;14.26;100.00;99914.38;6243588;22;20086;-92
2023/06/03 03:12:57;;;;;;;0.70;0.50;;;;;;;14.18;100.00;99910.34;6242766;22;20010;-91
2023/06/03 03:15:23;;;;;;;0.55;0.55;;;;;;;14.13;100.00;99917.31;6244412;22;20007;-91
2023/06/03 03:17:52;;;;;;;1.05;0.95;;;;;;;14.14;100.00;99924.44;6218754;22;20012;-92
2023/06/03 03:20:17;;;;;;;1.00;0.60;;;;;;;14.12;100.00;99926.13;6216506;22;20000;-91
2023/06/03 03:22:46;;;;;;;1.35;0.85;;;;;;;14.11;100.00;99935.75;6217602;22;20007;-91
2023/06/03 03:25:16;;;;;;;0.50;0.50;;;;;;;14.07;100.00;99929.56;6243980;22;20007;-91
2023/06/03 03:27:43;;;;;;;2.25;0.82;;;;;;;13.90;100.00;99903.97;6193315;22;20030;-92
2023/06/03 03:30:09;;;;;;;0.50;0.50;;;;;;;13.98;100.00;99935.91;6245508;22;20095;-93
2023/06/03 03:32:37;;;;;;;1.98;1.75;;;;;;;13.91;100.00;99934.16;6244919;22;20038;-91
2023/06/03 03:35:03;;;;;;;2.00;1.52;;;;;;;13.98;100.00;99959.00;6217737;22;20500;-92
2023/06/03 03:37:29;;;;;;;0.80;0.60;;;;;;;13.87;100.00;99955.84;6243237;22;20016;-92
2023/06/03 03:39:55;;;;;;;1.00;0.93;;;;;;;13.83;100.00;99960.78;6192983;22;20453;-91
2023/06/03 03:42:20;;;;;;;0.68;0.68;;;;;;;13.80;100.00;99960.94;6243964;22;20010;-91
2023/06/03 03:44:46;;;;;;;1.38;1.27;;;;;;;13.71;100.00;99969.31;6216547;22;20015;-91
2023/06/03 03:47:18;;;;;;;0.68;0.55;;;;;;;13.71;100.00;99975.63;6243354;22;20065;-91
2023/06/03 03:49:44;;;;;;;0.25;0.25;;;;;;;13.82;100.00;99991.94;6242562;22;20020;-91
2023/06/03 03:52:14;;;;;;;0.75;0.65;;;;;;;13.69;100.00;99989.25;6217822;22;20023;-92
2023/06/03 03:54:40;;;;;;;0.50;0.50;;;;;;;13.79;100.00;99993.63;6193400;22;20772;-91
2023/06/03 03:57:12;;;;;;;0.52;0.50;;;;;;;13.79;100.00;100010.34;6196807;22;20076;-90
2023/06/03 03:59:42;;;;;;;;;;;;;;;13.81;100.00;100015.47;6196761;22;20433;-89
2023/06/03 04:02:08;;;;;;;1.25;0.45;;;;;;;13.72;100.00;100001.50;6219527;22;19918;-89
2023/06/03 04:04:44;;;;;;;0.47;0.47;;;;;;;13.79;100.00;100018.72;6218239;22;20094;-88
2023/06/03 04:07:14;;;;;;;0.90;0.90;;;;;;;13.77;100.00;100029.56;6219766;22;20043;-88
2023/06/03 04:09:41;;;;;;;0.57;0.57;;;;;;;13.56;100.00;99991.38;6197671;22;20016;-89
2023/06/03 04:12:27;;;;;;;1.20;0.73;;;;;;;13.67;100.00;100016.81;6203679;22;20034;-88
2023/06/03 04:14:57;;;;;;;0.45;0.45;;;;;;;13.80;100.00;100028.63;6219508;22;20027;-89
2023/06/03 04:17:32;;;;;;;0.50;0.50;;;;;;;13.73;100.00;100020.56;6220579;22;20019;-88
2023/06/03 04:20:00;;;;;;;0.45;0.30;;;;;;;13.72;100.00;100027.34;6224365;22;20012;-89
2023/06/03 04:22:28;;;;;;;1.35;1.25;;;;;;;13.77;100.00;100032.34;6193917;22;20000;-89
2023/06/03 04:24:56;;;;;;;0.95;0.95;;;;;;;13.85;100.00;100036.41;6217115;22;20019;-89
2023/06/03 04:27:23;;;;;;;0.63;0.57;;;;;;;13.84;100.00;100028.47;6219699;22;19996;-90
2023/06/03 04:29:49;;;;;;;0.25;0.25;;;;;;;13.65;100.00;100010.94;6217090;22;20019;-90
2023/06/03 04:32:16;;;;;;;0.55;0.55;;;;;;;13.88;100.00;100038.25;6218652;22;20065;-89
2023/06/03 04:34:53;;;;;;;0.73;0.73;;;;;;;13.84;100.00;100040.41;6242110;22;20011;-89
2023/06/03 04:37:20;;;;;;;0.93;0.82;;;;;;;13.90;100.00;100038.59;6217526;22;20007;-89
2023/06/03 04:39:51;;;;;;;0.30;0.30;;;;;;;13.80;100.00;100023.06;6217804;22;20077;-90
2023/06/03 04:42:17;;;;;;;3.05;1.42;;;;;;;13.95;100.00;100046.34;6216546;22;20295;-89
2023/06/03 04:44:45;;;;;;;0.45;0.45;;;;;;;13.79;100.00;100015.16;6193071;22;20114;-89
2023/06/03 04:47:12;;;;;;;0.28;0.28;;;;;;;13.83;100.00;100027.69;6217703;22;20433;-89
2023/06/03 04:49:38;;;;;;;1.13;0.63;;;;;;;13.93;100.00;100048.03;6217334;22;20011;-88
2023/06/03 04:52:10;;;;;;;1.13;0.88;;;;;;;14.09;100.00;100063.75;6217031;22;20007;-89
2023/06/03 04:54:42;;;;;;;0.32;0.30;;;;;;;14.14;100.00;100072.28;6194285;22;20023;-89
2023/06/03 04:57:10;;;;;;;0.20;0.20;;;;;;;14.18;100.00;100069.34;6194345;22;20046;-89
2023/06/03 04:59:36;;;;;;;0.40;0.40;;;;;;;14.15;100.00;100042.38;6217478;22;20011;-88
2023/06/03 05:02:04;;;;;;;0.57;0.57;;;;;;;14.53;100.00;100075.50;6193051;22;20019;-87
2023/06/03 05:04:30;;;;;;;1.80;0.80;;;;;;;14.67;100.00;100075.69;6216314;22;20020;-87
2023/06/03 05:07:00;;;;;;;0.22;0.22;;;;;;;14.86;100.00;100084.84;6216355;22;20410;-87
2023/06/03 05:09:26;;;;;;;0.30;0.30;;;;;;;14.98;100.00;100080.31;6193108;22;20016;-88
2023/06/03 05:11:55;;;;;;;0.52;0.52;;;;;;;14.87;100.00;100048.06;6218548;22;20015;-87
2023/06/03 05:14:22;;;;;;;0.88;0.43;;;;;;;15.22;100.00;100078.44;6218147;22;20016;-88
2023/06/03 05:16:48;;;;;;;0.70;0.70;;;;;;;15.19;100.00;100054.25;6218237;22;20090;-89
2023/06/03 05:19:17;;;;;;;1.27;1.17;;;;;;;15.47;100.00;100080.13;6194481;22;20649;-89
2023/06/03 05:21:42;;;;;;;1.23;1.13;;;;;;;15.29;100.00;100039.00;6218379;22;20073;-88
2023/06/03 05:24:09;;;;;;;0.20;0.20;;;;;;;15.69;100.00;100083.50;6219236;22;20039;-88
2023/06/03 05:26:35;;;;;;;0.85;0.85;;;;;;;15.73;100.00;100084.88;6218686;22;20483;-88
2023/06/03 05:29:00;;;;;;;0.65;0.65;;;;;;;15.82;99.14;100081.28;6244754;22;20019;-89
2023/06/03 05:31:26;;;;;;;0.95;0.80;;;;;;;15.79;97.33;100060.63;6219846;22;20448;-88
2023/06/03 05:33:51;;;;;;;0.73;0.73;;;;;;;15.85;97.09;100077.56;6271883;22;20467;-88
2023/06/03 05:36:22;;;;;;;0.57;0.57;;;;;;;15.79;97.61;100074.63;6244301;22;20054;-88
2023/06/03 05:38:48;;;;;;;0.40;0.40;;;;;;;15.97;96.50;100092.56;6193993;22;20019;-88
2023/06/03 05:41:15;;;;;;;0.65;0.65;;;;;;;15.99;96.51;100090.06;6219082;22;20008;-88
2023/06/03 05:43:43;;;;;;;1.10;0.55;;;;;;;16.07;96.38;100091.28;6219150;22;20141;-89
2023/06/03 05:46:09;;;;;;;0.20;0.20;;;;;;;16.24;97.07;100089.66;6193842;22;20022;-89
2023/06/03 05:48:35;;;;;;;1.00;0.70;;;;;;;16.40;91.91;100064.03;6217971;22;20034;-89
2023/06/03 05:51:01;;;;;;;0.75;0.75;;;;;;;16.63;89.54;100088.50;6217618;22;20462;-88
2023/06/03 05:53:29;;;;;;;0.30;0.30;;;;;;;16.71;88.48;100067.28;6219314;22;20086;-88
2023/06/03 05:55:58;;;;;;;0.00;0.00;;;;;;;16.98;85.88;100082.34;6241634;22;20047;-88
2023/06/03 05:58:26;;;;;;;1.88;1.50;;;;;;;17.18;84.97;100099.28;6218487;22;20027;-89
2023/06/03 06:00:53;;;;;;;8.23;2.83;;;;;;;17.23;84.55;100102.16;6215368;22;20457;-89
2023/06/03 06:03:18;;;;;;;0.77;0.63;;;;;;;17.48;83.78;100112.06;6217728;22;20012;-88
2023/06/03 06:05:45;;;;;;;0.80;0.77;;;;;;;17.65;81.39;100104.75;6215402;22;20023;-87
2023/06/03 06:08:10;;;;;;;0.80;0.80;;;;;;;17.78;80.82;100104.47;6218159;22;20115;-87
2023/06/03 06:10:36;;;;;;;3.85;1.60;;;;;;;17.78;79.32;100109.28;6194539;22;20011;-87
2023/06/03 06:13:02;;;;;;;1.00;0.68;;;;;;;17.64;78.64;100094.78;6244461;22;20077;-87
2023/06/03 06:15:29;;;;;;;0.55;0.50;;;;;;;17.41;80.15;100109.66;6195229;22;20057;-87
2023/06/03 06:17:55;;;;;;;0.57;0.47;;;;;;;17.21;82.23;100104.69;6217248;22;20103;-87
2023/06/03 06:23:59;;;;;;;0.60;0.60;;;;;;;16.65;87.45;100100.00;4997274;28;20719;-89
2023/06/03 06:26:25;;;;;;;0.57;0.57;;;;;;;16.45;88.77;100122.19;4949538;28;20122;-88
2023/06/03 06:28:54;;;;;;;0.98;0.95;;;;;;;16.44;92.16;100117.84;4987684;28;20031;-89
2023/06/03 06:31:20;;;;;;;0.77;0.77;;;;;;;16.34;97.06;100116.31;4965035;28;20035;-89
2023/06/03 06:33:50;;;;;;;1.05;0.95;;;;;;;16.22;98.28;100100.53;4950582;28;20057;-90
2023/06/03 06:36:39;;;;;;;0.40;0.40;;;;;;;16.28;98.56;100118.25;4962420;28;20121;-90
2023/06/03 06:39:34;;;;;;;0.45;0.30;;;;;;;16.14;96.72;100119.69;4962716;28;20031;-90
2023/06/03 06:42:13;;;;;;;0.70;0.65;;;;;;;16.06;94.77;100123.28;4968077;28;20047;-88
2023/06/03 06:44:46;;;;;;;0.75;0.75;;;;;;;15.93;94.45;100115.13;4960320;28;20068;-88
2023/06/03 06:47:14;;;;;;;1.45;1.35;;;;;;;15.98;95.25;100117.25;4956512;28;20504;-89
2023/06/03 06:49:40;;;;;;;8.90;2.83;;;;;;;15.83;95.55;100117.16;4965237;28;20027;-89
2023/06/03 06:52:08;;;;;;;0.43;0.43;;;;;;;15.85;96.30;100114.66;4962394;28;20035;-90
2023/06/03 06:54:34;;;;;;;2.90;0.88;;;;;;;15.79;96.52;100113.78;4984864;28;20042;-90
2023/06/03 06:56:59;;;;;;;1.38;0.82;;;;;;;15.77;95.95;100107.84;4956120;28;20038;-91
2023/06/03 06:59:25;;;;;;;0.85;0.85;;;;;;;15.91;95.54;100128.03;4982034;28;20127;-89
2023/06/03 07:01:51;;;;;;;0.25;0.25;;;;;;;15.88;95.10;100124.16;4980257;28;20565;-90
2023/06/03 07:04:16;;;;;;;0.70;0.70;;;;;;;15.96;96.07;100132.97;4974868;28;20034;-90
2023/06/03 07:06:42;;;;;;;2.25;1.02;;;;;;;15.91;94.80;100117.63;4959679;28;20398;-90
2023/06/03 07:09:07;;;;;;;0.40;0.40;;;;;;;16.04;94.50;100125.81;4962459;28;20404;-89
2023/06/03 07:11:38;;;;;;;0.40;0.40;;;;;;;16.05;93.80;100132.97;4965896;28;20399;-89
2023/06/03 07:14:04;;;;;;;0.85;0.65;;;;;;;16.19;94.50;100126.66;4977904;28;20034;-89
2023/06/03 07:16:29;;;;;;;0.40;0.40;;;;;;;16.07;94.25;100113.66;4967449;28;20084;-90
2023/06/03 07:18:55;;;;;;;0.93;0.68;;;;;;;16.28;92.29;100123.84;4957880;28;20317;-89
2023/06/03 07:21:36;;;;;;;1.08;0.75;;;;;;;16.37;91.55;100128.63;4984635;28;20134;-88
2023/06/03 07:24:06;;;;;;;0.95;0.93;;;;;;;16.43;90.86;100141.47;4987343;28;20035;-95
2023/06/03 07:26:33;;;;;;;0.55;0.55;;;;;;;16.39;90.83;100140.88;4965246;28;20043;-93
2023/06/03 07:28:59;;;;;;;0.98;0.98;;;;;;;16.48;90.74;100135.25;4994004;28;20049;-94
2023/06/03 07:31:27;;;;;;;0.80;0.80;;;;;;;16.60;90.67;100148.25;4982987;28;20038;-95
2023/06/03 07:33:56;;;;;;;0.82;0.60;;;;;;;16.76;89.18;100142.25;4961826;28;20051;-88
2023/06/03 07:36:35;;;;;;;0.55;0.55;;;;;;;17.01;90.56;100140.22;4948667;28;20043;-95
2023/06/03 07:39:06;;;;;;;0.43;0.43;;;;;;;17.29;86.70;100144.34;5012858;28;20040;-94
2023/06/03 07:41:41;;;;;;;0.30;0.30;;;;;;;17.68;82.95;100137.44;4969492;28;20081;-96
2023/06/03 07:44:14;;;;;;;0.47;0.47;;;;;;;18.15;79.94;100141.28;4949962;28;20134;-95
2023/06/03 07:46:41;;;;;;;0.47;0.47;;;;;;;18.48;75.24;100141.78;4977902;28;20046;-95
2023/06/03 07:49:09;;;;;;;0.52;0.52;;;;;;;18.44;73.22;100146.81;4976364;28;20094;-96
2023/06/03 07:51:35;;;;;;;1.55;1.10;;;;;;;18.14;74.17;100134.91;4981188;28;20038;-96
2023/06/03 07:54:03;;;;;;;0.70;0.70;;;;;;;18.03;75.65;100111.50;4984564;28;20027;-95
2023/06/03 07:56:28;;;;;;;0.32;0.32;;;;;;;18.15;76.71;100130.84;4981328;28;20031;-95
2023/06/03 07:58:54;;;;;;;1.92;0.77;;;;;;;18.09;76.20;100132.00;4981421;28;20114;-95
2023/06/03 08:01:23;;;;;;;0.50;0.50;;;;;;;18.05;75.80;100134.22;4968097;28;20487;-95
2023/06/03 08:03:49;;;;;;;0.85;0.47;;;;;;;18.03;76.41;100131.16;4986667;28;20045;-94
2023/06/03 08:06:14;;;;;;;1.17;1.15;;;;;;;18.13;78.28;100118.53;4972502;28;20118;-95
2023/06/03 08:08:40;;;;;;;0.50;0.50;;;;;;;18.55;77.22;100115.34;4976647;28;20451;-94
2023/06/03 08:11:07;;;;;;;0.60;0.60;;;;;;;19.12;74.74;100138.06;4975315;28;20030;-96
2023/06/03 08:13:32;;;;;;;1.33;1.02;;;;;;;19.55;72.25;100131.41;4983213;28;20035;-95
2023/06/03 08:15:59;;;;;;;1.05;1.00;;;;;;;19.67;65.36;100131.50;4979454;28;20065;-94
2023/06/03 08:18:24;;;;;;;1.23;1.13;;;;;;;19.79;64.85;100141.59;4980349;28;20098;-95
2023/06/03 08:20:50;;;;;;;0.68;0.52;;;;;;;20.01;62.38;100136.94;4981505;28;20624;-94
2023/06/03 08:23:16;;;;;;;0.68;0.63;;;;;;;20.09;59.78;100128.81;4984539;28;20135;-95
2023/06/03 08:25:42;;;;;;;0.85;0.73;;;;;;;20.41;61.71;100138.78;4986764;28;20388;-95
2023/06/03 08:28:08;;;;;;;1.15;1.00;;;;;;;20.31;58.51;100145.88;4973411;28;20031;-94
2023/06/03 08:30:33;;;;;;;0.30;0.30;;;;;;;20.05;60.20;100131.06;5004220;28;20051;-94
2023/06/03 08:32:59;;;;;;;0.65;0.40;;;;;;;19.99;61.08;100145.09;4978041;28;20094;-94
2023/06/03 08:35:25;;;;;;;2.55;0.63;;;;;;;20.02;62.56;100149.72;4978442;28;20049;-94
2023/06/03 08:37:50;;;;;;;0.50;0.50;;;;;;;19.94;61.55;100139.41;4986470;28;20038;-94
2023/06/03 08:40:21;;;;;;;0.52;0.52;;;;;;;19.97;62.94;100144.06;4977046;28;20031;-96
2023/06/03 08:42:48;;;;;;;0.70;0.35;;;;;;;20.01;62.44;100144.59;4992920;28;20043;-96
2023/06/03 08:45:17;;;;;;;0.77;0.77;;;;;;;20.06;63.36;100146.69;4984662;28;20023;-96
2023/06/03 08:47:59;;;;;;;0.88;0.60;;;;;;;19.90;61.32;100130.41;5045412;28;20046;-96
2023/06/03 08:50:26;;;;;;;0.90;0.55;;;;;;;19.88;63.19;100147.06;4972174;28;20039;-94
2023/06/03 08:52:53;;;;;;;0.40;0.40;;;;;;;20.00;63.98;100137.44;4984764;28;20070;-95
2023/06/03 08:55:19;;;;;;;1.42;1.33;;;;;;;20.03;61.01;100139.25;4987940;28;20080;-96
2023/06/03 08:58:04;;;;;;;0.43;0.43;;;;;;;19.93;60.04;100121.78;4996009;28;20044;-89
2023/06/03 09:00:30;;;;;;;0.95;0.52;;;;;;;20.20;56.23;100145.78;4960816;28;20032;-90
2023/06/03 09:02:56;;;;;;;1.23;1.13;;;;;;;20.35;55.72;100134.38;4961834;28;20054;-89
2023/06/03 09:05:22;;;;;;;0.20;0.20;;;;;;;20.40;54.84;100139.28;4957936;28;20027;-90
2023/06/03 09:07:49;;;;;;;2.20;0.73;;;;;;;20.35;53.58;100145.66;4944176;28;20051;-90
2023/06/03 09:10:16;;;;;;;1.33;1.23;;;;;;;20.37;54.02;100140.28;4963050;28;20044;-89
2023/06/03 09:12:43;;;;;;;0.80;0.50;;;;;;;20.56;51.77;100129.38;4962937;28;20092;-89
2023/06/03 09:15:10;;;;;;;0.85;0.68;;;;;;;20.79;50.16;100139.50;4947868;28;20078;-89
2023/06/03 09:17:36;;;;;;;0.52;0.47;;;;;;;21.23;49.28;100156.63;4963970;28;20464;-89
2023/06/03 09:20:02;;;;;;;0.73;0.57;;;;;;;21.29;49.21;100137.69;4940389;28;20042;-89
2023/06/03 09:22:28;;;;;;;0.30;0.30;;;;;;;21.42;49.12;100156.19;4932628;28;20056;-89
2023/06/03 09:24:54;;;;;;;1.42;1.02;;;;;;;21.82;49.51;100138.81;4939420;28;20078;-89
2023/06/03 09:27:19;;;;;;;0.40;0.40;;;;;;;22.46;47.26;100157.56;4938014;28;20031;-89
2023/06/03 09:29:45;;;;;;;0.50;0.50;;;;;;;22.98;44.95;100143.56;4962964;28;20059;-89
2023/06/03 09:32:10;;;;;;;0.55;0.55;;;;;;;23.31;43.36;100153.19;4940057;28;20035;-90
2023/06/03 09:34:36;;;;;;;0.30;0.30;;;;;;;23.29;42.06;100164.28;4966641;28;20573;-89
2023/06/03 09:37:09;;;;;;;1.10;0.38;;;;;;;23.16;41.39;100167.69;4955076;28;20031;-89
2023/06/03 09:39:35;;;;;;;0.20;0.20;;;;;;;22.68;42.26;100165.25;4951929;28;20069;-89
2023/06/03 09:42:02;;;;;;;0.40;0.30;;;;;;;22.53;42.27;100173.22;4983563;28;20031;-89
2023/06/03 09:44:49;;;;;;;0.73;0.52;;;;;;;22.26;42.86;100158.63;4967557;28;20112;-89
2023/06/03 09:47:18;;;;;;;0.50;0.50;;;;;;;22.21;42.83;100167.84;4964956;28;20480;-87
2023/06/03 09:50:07;;;;;;;5.28;0.95;;;;;;;22.04;42.75;100175.56;4956049;28;20051;-90
2023/06/03 09:52:34;;;;;;;0.30;0.30;;;;;;;22.03;42.84;100157.09;4964311;28;20054;-89
2023/06/03 09:55:10;;;;;;;0.28;0.28;;;;;;;22.04;42.40;100167.06;4964207;28;20054;-89
2023/06/03 09:57:38;;;;;;;0.65;0.65;;;;;;;22.39;41.67;100169.41;4948434;28;20047;-89
2023/06/03 10:00:09;;;;;;;1.05;0.77;;;;;;;22.75;42.68;100167.56;4968780;28;20024;-89
2023/06/03 10:02:46;;;;;;;1.50;1.10;;;;;;;23.17;42.17;100167.13;4944994;28;20074;-89
2023/06/03 10:05:28;;;;;;;0.25;0.20;;;;;;;23.43;40.54;100154.69;4967540;28;20042;-90
2023/06/03 10:07:54;;;;;;;1.00;0.95;;;;;;;23.38;41.20;100150.56;5038113;28;20039;-89
2023/06/03 10:10:20;;;;;;;1.25;0.50;;;;;;;23.23;40.74;100164.28;4967089;28;20061;-89
2023/06/03 10:12:48;;;;;;;0.40;0.30;;;;;;;23.03;40.95;100162.56;4948109;28;20074;-89
2023/06/03 10:15:32;;;;;;;0.77;0.77;;;;;;;22.75;41.57;100161.91;4962422;28;20411;-89
2023/06/03 10:17:57;;;;;;;0.60;0.52;;;;;;;22.48;41.91;100165.53;4949684;28;20054;-88
2023/06/03 10:20:33;;;;;;;0.73;0.65;;;;;;;22.49;42.64;100170.66;4943658;28;20441;-89
2023/06/03 10:23:03;;;;;;;0.45;0.45;;;;;;;22.52;42.90;100166.81;4950218;28;20049;-89
2023/06/03 10:25:37;;;;;;;0.25;0.25;;;;;;;22.72;41.76;100163.72;4951416;28;20066;-89
2023/06/03 10:28:03;;;;;;;0.43;0.43;;;;;;;22.78;41.26;100155.97;4965409;28;20140;-89
2023/06/03 10:30:30;;;;;;;0.30;0.30;;;;;;;22.70;40.40;100159.84;4930829;28;20042;-87
2023/06/03 10:32:58;;;;;;;0.50;0.45;;;;;;;22.55;39.77;100154.47;4961888;28;20055;-88
2023/06/03 10:35:24;;;;;;;0.50;0.50;;;;;;;22.54;40.00;100163.44;4959378;28;20026;-88
2023/06/03 10:37:50;;;;;;;0.73;0.32;;;;;;;22.56;39.53;100161.66;4941916;28;20074;-88
2023/06/03 10:40:15;;;;;;;0.38;0.38;;;;;;;22.58;39.68;100169.63;4934458;28;20027;-87
2023/06/03 10:42:42;;;;;;;0.10;0.10;;;;;;;22.40;39.97;100165.28;4936450;28;20412;-87
2023/06/03 10:45:08;;;;;;;1.20;0.40;;;;;;;22.51;40.92;100153.19;4976397;28;20415;-87
2023/06/03 10:47:34;;;;;;;1.60;0.38;;;;;;;22.67;38.78;100172.94;4962346;28;20011;-87
2023/06/03 10:50:25;;;;;;;0.35;0.35;;;;;;;22.70;38.40;100166.28;4942911;28;20044;-88
2023/06/03 10:53:05;;;;;;;0.30;0.30;;;;;;;22.82;38.87;100166.25;4956722;28;20149;-89
2023/06/03 10:55:36;;;;;;;0.10;0.10;;;;;;;22.61;38.87;100169.34;4970988;28;20038;-89
2023/06/03 10:58:08;;;;;;;0.40;0.40;;;;;;;22.53;40.13;100157.03;4964234;28;20503;-88
2023/06/03 11:00:53;;;;;;;1.02;0.98;;;;;;;22.81;39.80;100165.47;4929657;28;20078;-88
2023/06/03 11:03:21;;;;;;;0.40;0.40;;;;;;;22.78;39.63;100164.47;4966374;28;20514;-89
2023/06/03 11:05:47;;;;;;;1.60;1.38;;;;;;;22.75;40.02;100165.50;4956170;28;20117;-88
2023/06/03 11:08:13;;;;;;;0.57;0.57;;;;;;;22.76;39.61;100154.97;4933899;28;20059;-89
2023/06/03 11:10:43;;;;;;;0.85;0.65;;;;;;;23.10;39.88;100158.41;4938431;28;20666;-89
2023/06/03 11:13:11;;;;;;;0.40;0.40;;;;;;;23.33;38.40;100159.09;4982476;28;20042;-89
2023/06/03 11:16:02;;;;;;;0.65;0.65;;;;;;;23.25;36.91;100145.47;4974987;28;20121;-88
2023/06/03 11:18:29;;;;;;;0.50;0.50;;;;;;;23.51;37.21;100164.16;4970545;28;20043;-88
2023/06/03 11:20:55;;;;;;;0.32;0.32;;;;;;;23.46;36.62;100137.44;5010552;28;20044;-89
2023/06/03 11:23:43;;;;;;;0.60;0.52;;;;;;;23.94;37.18;100150.25;4990136;28;20153;-89
2023/06/03 11:26:35;;;;;;;0.10;0.10;;;;;;;24.32;38.23;100149.16;4969592;28;20519;-89
2023/06/03 11:29:03;;;;;;;0.10;0.10;;;;;;;24.38;37.65;100144.22;4959182;28;20376;-89
2023/06/03 11:31:30;;;;;;;1.80;1.23;;;;;;;24.11;38.05;100131.78;4974602;28;20059;-89
2023/06/03 11:34:18;;;;;;;0.93;0.88;;;;;;;24.15;38.87;100145.69;4969789;28;20444;-89
2023/06/03 11:36:57;;;;;;;0.90;0.82;;;;;;;23.99;38.99;100136.03;4976299;28;20039;-96